createdAt,value
2022-12-16T00:01:52.867Z,42.95
2022-12-16T00:04:23.141Z,36.92
2022-12-16T00:06:51.302Z,48.80
2022-12-16T00:09:20.387Z,43.55
2022-12-16T00:11:48.547Z,40.22
2022-12-16T00:14:16.777Z,40.35
2022-12-16T00:16:44.970Z,39.00
2022-12-16T00:19:14.742Z,38.03
2022-12-16T00:21:42.936Z,36.42
2022-12-16T00:24:11.913Z,33.08
2022-12-16T00:26:40.061Z,34.80
2022-12-16T00:29:11.189Z,33.28
2022-12-16T00:31:39.720Z,35.80
2022-12-16T00:34:07.981Z,35.20
2022-12-16T00:36:37.922Z,34.22
2022-12-16T00:39:06.014Z,36.20
2022-12-16T00:41:34.501Z,38.45
2022-12-16T00:44:02.872Z,26.95
2022-12-16T00:46:31.059Z,28.92
2022-12-16T00:48:59.151Z,35.22
2022-12-16T00:51:27.574Z,28.83
2022-12-16T00:53:57.351Z,33.78
2022-12-16T00:56:25.531Z,30.63
2022-12-16T00:58:53.746Z,30.65
2022-12-16T01:01:23.154Z,35.08
2022-12-16T01:03:51.545Z,32.05
2022-12-16T01:06:19.848Z,28.73
2022-12-16T01:08:49.447Z,31.88
2022-12-16T01:11:20.757Z,32.17
2022-12-16T01:13:52.825Z,33.88
2022-12-16T01:16:23.435Z,34.80
2022-12-16T01:18:51.978Z,33.53
2022-12-16T01:21:20.586Z,30.27
2022-12-16T01:23:49.056Z,32.58
2022-12-16T01:26:19.598Z,28.08
2022-12-16T01:28:50.003Z,37.83
2022-12-16T01:31:19.634Z,29.33
2022-12-16T01:33:48.351Z,28.60
2022-12-16T01:36:16.584Z,35.38
2022-12-16T01:38:45.812Z,38.75
2022-12-16T01:41:15.550Z,38.83
2022-12-16T01:43:47.173Z,35.13
2022-12-16T01:46:21.496Z,33.35
2022-12-16T01:48:53.781Z,30.05
2022-12-16T01:51:27.806Z,35.92
2022-12-16T01:54:00.587Z,34.33
2022-12-16T01:56:32.283Z,35.80
2022-12-16T01:59:03.095Z,25.50
2022-12-16T02:01:31.359Z,30.77
2022-12-16T02:04:03.975Z,36.53
2022-12-16T02:06:33.351Z,30.05
2022-12-16T02:09:04.675Z,36.28
2022-12-16T02:11:46.453Z,33.80
2022-12-16T02:14:37.488Z,34.17
2022-12-16T02:17:10.663Z,32.08
2022-12-16T02:20:16.008Z,36.00
2022-12-16T02:23:00.392Z,37.15
2022-12-16T02:25:59.515Z,37.08
2022-12-16T02:28:40.497Z,37.95
2022-12-16T02:31:26.815Z,34.95
2022-12-16T02:34:09.555Z,36.58
2022-12-16T02:36:51.292Z,36.40
2022-12-16T02:39:24.117Z,31.25
2022-12-16T02:41:58.577Z,29.73
2022-12-16T02:44:36.939Z,28.95
2022-12-16T02:47:06.727Z,27.33
2022-12-16T02:49:47.244Z,32.60
2022-12-16T02:52:16.134Z,28.15
2022-12-16T02:54:45.320Z,29.85
2022-12-16T02:57:34.006Z,25.85
2022-12-16T03:00:06.542Z,24.35
2022-12-16T03:02:46.941Z,20.30
2022-12-16T03:05:20.540Z,21.53
2022-12-16T03:07:51.483Z,24.08
2022-12-16T03:10:26.232Z,25.42
2022-12-16T03:12:57.722Z,23.83
2022-12-16T03:15:30.747Z,24.67
2022-12-16T03:18:02.254Z,26.15
2022-12-16T03:20:37.031Z,26.23
2022-12-16T03:23:11.727Z,24.15
2022-12-16T03:25:46.854Z,23.77
2022-12-16T03:28:26.191Z,21.70
2022-12-16T03:31:02.677Z,23.77
2022-12-16T03:33:36.601Z,28.45
2022-12-16T03:36:11.746Z,25.75
2022-12-16T03:38:40.839Z,26.77
2022-12-16T03:41:09.849Z,24.60
2022-12-16T03:43:39.094Z,25.38
2022-12-16T03:46:09.300Z,22.70
2022-12-16T03:48:46.958Z,23.15
2022-12-16T03:51:15.995Z,23.00
2022-12-16T03:53:44.275Z,24.27
2022-12-16T03:56:13.194Z,19.33
2022-12-16T03:58:41.927Z,21.33
2022-12-16T04:01:13.344Z,21.23
2022-12-16T04:03:42.973Z,20.73
2022-12-16T04:06:11.349Z,20.75
2022-12-16T04:08:39.585Z,23.38
2022-12-16T04:11:25.094Z,25.10
2022-12-16T04:14:10.681Z,21.05
2022-12-16T04:16:56.595Z,26.20
2022-12-16T04:19:47.286Z,21.15
2022-12-16T04:22:51.146Z,20.02
2022-12-16T04:25:22.206Z,24.23
2022-12-16T04:27:50.463Z,20.33
2022-12-16T04:30:20.617Z,23.05
2022-12-16T04:33:10.434Z,21.75
2022-12-16T04:35:57.318Z,24.33
2022-12-16T04:38:42.997Z,24.55
2022-12-16T04:41:28.827Z,27.30
2022-12-16T04:44:14.479Z,27.17
2022-12-16T04:46:59.977Z,22.50
2022-12-16T04:49:45.524Z,20.85
2022-12-16T04:52:33.287Z,20.77
2022-12-16T04:55:18.602Z,19.45
2022-12-16T04:58:07.372Z,26.95
2022-12-16T05:00:53.215Z,19.35
2022-12-16T05:03:41.546Z,24.17
2022-12-16T05:06:27.166Z,23.60
2022-12-16T05:09:14.238Z,24.35
2022-12-16T05:11:59.994Z,24.25
2022-12-16T05:14:45.558Z,23.08
2022-12-16T05:17:31.047Z,24.88
2022-12-16T05:20:17.023Z,20.98
2022-12-16T05:23:03.057Z,20.30
2022-12-16T05:25:50.517Z,21.55
2022-12-16T05:28:36.405Z,23.65
2022-12-16T05:31:21.916Z,21.05
2022-12-16T05:34:07.674Z,21.67
2022-12-16T05:36:52.902Z,20.20
2022-12-16T05:39:38.376Z,22.27
2022-12-16T05:42:25.647Z,20.30
2022-12-16T05:45:11.207Z,16.90
2022-12-16T05:47:56.866Z,21.25
2022-12-16T05:50:42.674Z,19.10
2022-12-16T05:53:28.498Z,21.33
2022-12-16T05:56:15.418Z,20.85
2022-12-16T05:59:02.675Z,18.85
2022-12-16T06:01:48.076Z,18.77
2022-12-16T06:04:33.539Z,21.73
2022-12-16T06:07:19.233Z,23.40
2022-12-16T06:10:01.181Z,16.23
2022-12-16T06:12:46.864Z,16.58
2022-12-16T06:15:34.272Z,23.10
2022-12-16T06:18:19.715Z,20.08
2022-12-16T06:21:05.432Z,20.20
2022-12-16T06:23:50.714Z,17.75
2022-12-16T06:26:36.612Z,17.70
2022-12-16T06:29:22.393Z,17.92
2022-12-16T06:32:09.364Z,16.83
2022-12-16T06:34:54.916Z,16.45
2022-12-16T06:37:40.461Z,16.83
2022-12-16T06:40:27.593Z,15.52
2022-12-16T06:43:13.186Z,19.90
2022-12-16T06:45:59.190Z,16.92
2022-12-16T06:48:46.356Z,19.30
2022-12-16T06:51:31.536Z,16.13
2022-12-16T06:54:17.239Z,16.52
2022-12-16T06:57:03.023Z,14.68
2022-12-16T06:59:48.568Z,15.60
2022-12-16T07:02:34.777Z,13.98
2022-12-16T07:05:22.047Z,14.50
2022-12-16T07:08:07.797Z,15.05
2022-12-16T07:11:00.369Z,14.45
2022-12-16T07:13:54.603Z,13.75
2022-12-16T07:16:40.446Z,16.70
2022-12-16T07:19:26.224Z,15.30
2022-12-16T07:22:13.521Z,16.45
2022-12-16T07:24:59.410Z,13.45
2022-12-16T07:27:44.736Z,13.95
2022-12-16T07:30:31.499Z,19.83
2022-12-16T07:33:17.299Z,15.98
2022-12-16T07:36:03.111Z,19.08
2022-12-16T07:38:49.928Z,18.58
2022-12-16T07:41:35.766Z,18.10
2022-12-16T07:44:21.024Z,17.30
2022-12-16T07:47:06.814Z,17.00
2022-12-16T07:49:51.999Z,17.38
2022-12-16T07:52:41.104Z,14.05
2022-12-16T07:55:29.360Z,14.80
2022-12-16T07:58:14.809Z,11.07
2022-12-16T08:01:04.949Z,16.00
2022-12-16T08:03:53.399Z,14.10
2022-12-16T08:06:40.571Z,17.55
2022-12-16T08:09:26.315Z,15.45
2022-12-16T08:12:24.626Z,16.00
2022-12-16T08:15:10.113Z,16.25
2022-12-16T08:17:55.679Z,13.55
2022-12-16T08:20:41.670Z,13.85
2022-12-16T08:23:26.941Z,12.50
2022-12-16T08:26:12.887Z,15.25
2022-12-16T08:29:27.309Z,16.60
2022-12-16T08:32:16.621Z,13.98
2022-12-16T08:35:02.149Z,16.17
2022-12-16T08:37:47.477Z,16.98
2022-12-16T08:40:36.069Z,13.85
2022-12-16T08:43:22.825Z,14.82
2022-12-16T08:46:12.709Z,10.18
2022-12-16T08:48:58.397Z,12.63
2022-12-16T08:51:44.726Z,10.45
2022-12-16T08:54:30.500Z,13.65
2022-12-16T08:57:16.450Z,13.95
2022-12-16T09:00:07.678Z,11.73
2022-12-16T09:02:55.564Z,16.67
2022-12-16T09:05:50.087Z,13.32
2022-12-16T09:08:36.633Z,16.20
2022-12-16T09:11:22.380Z,14.18
2022-12-16T09:14:08.175Z,11.73
2022-12-16T09:16:54.067Z,15.82
2022-12-16T09:19:41.781Z,12.63
2022-12-16T09:22:27.697Z,13.70
2022-12-16T09:25:13.156Z,12.68
2022-12-16T09:27:58.946Z,18.67
2022-12-16T09:30:44.739Z,23.48
2022-12-16T09:33:30.802Z,18.88
2022-12-16T09:36:18.018Z,15.60
2022-12-16T09:39:03.668Z,14.70
2022-12-16T09:42:00.375Z,15.00
2022-12-16T09:44:56.889Z,18.20
2022-12-16T09:47:50.085Z,19.77
2022-12-16T09:50:40.419Z,20.27
2022-12-16T09:53:31.895Z,26.10
2022-12-16T09:56:20.150Z,25.58
2022-12-16T09:59:10.334Z,31.67
2022-12-16T10:01:57.220Z,14.95
2022-12-16T10:04:43.741Z,15.77
2022-12-16T10:07:36.237Z,15.70
2022-12-16T10:10:35.551Z,18.02
2022-12-16T10:13:31.883Z,15.80
2022-12-16T10:16:26.770Z,20.95
2022-12-16T10:19:19.734Z,15.13
2022-12-16T10:22:16.645Z,13.30
2022-12-16T10:25:12.574Z,18.33
2022-12-16T10:28:03.714Z,15.40
2022-12-16T10:30:50.508Z,12.80
2022-12-16T10:33:37.696Z,7.85
2022-12-16T10:36:26.483Z,16.35
2022-12-16T10:39:16.728Z,11.35
2022-12-16T10:42:07.250Z,12.02
2022-12-16T10:44:59.820Z,19.90
2022-12-16T10:47:45.100Z,19.42
2022-12-16T10:50:32.452Z,14.27
2022-12-16T10:53:20.816Z,13.95
2022-12-16T10:56:16.077Z,15.88
2022-12-16T10:59:08.384Z,11.75
2022-12-16T11:01:56.451Z,21.15
2022-12-16T11:04:50.469Z,14.75
2022-12-16T11:07:50.686Z,9.20
2022-12-16T11:10:45.465Z,11.85
2022-12-16T11:13:39.584Z,11.68
2022-12-16T11:16:29.474Z,14.48
2022-12-16T11:19:17.242Z,11.35
2022-12-16T11:22:03.540Z,12.27
2022-12-16T11:24:49.339Z,11.82
2022-12-16T11:27:40.981Z,11.85
2022-12-16T11:30:36.934Z,10.75
2022-12-16T11:33:29.891Z,13.52
2022-12-16T11:36:29.161Z,12.27
2022-12-16T11:39:15.174Z,8.75
2022-12-16T11:42:03.673Z,9.30
2022-12-16T11:44:55.130Z,5.72
2022-12-16T11:47:52.937Z,10.98
2022-12-16T11:50:39.291Z,6.88
2022-12-16T11:53:49.817Z,4.07
2022-12-16T11:59:31.746Z,5.63
2022-12-16T12:02:22.823Z,7.95
2022-12-16T12:05:09.066Z,6.88
2022-12-16T12:08:05.518Z,6.38
2022-12-16T12:11:08.901Z,8.48
2022-12-16T12:14:17.534Z,5.43
2022-12-16T12:17:27.920Z,3.90
2022-12-16T12:20:25.010Z,8.38
2022-12-16T12:23:13.980Z,9.27
2022-12-16T12:26:08.946Z,4.65
2022-12-16T12:29:06.169Z,4.43
2022-12-16T12:32:00.922Z,4.32
2022-12-16T12:34:54.080Z,5.90
2022-12-16T12:37:45.356Z,4.82
2022-12-16T12:40:50.218Z,5.57
2022-12-16T12:43:47.392Z,6.80
2022-12-16T12:46:40.696Z,3.00
2022-12-16T12:49:32.434Z,10.00
2022-12-16T12:52:28.486Z,5.07
2022-12-16T12:55:21.859Z,4.60
2022-12-16T12:58:09.552Z,5.90
2022-12-16T13:01:03.482Z,7.30
2022-12-16T13:03:56.578Z,5.38
2022-12-16T13:06:42.958Z,5.38
2022-12-16T13:09:56.307Z,3.63
2022-12-16T13:12:45.428Z,6.55
2022-12-16T13:15:47.805Z,3.22
2022-12-16T13:18:43.644Z,5.18
2022-12-16T13:22:04.315Z,3.92
2022-12-16T13:25:07.408Z,4.68
2022-12-16T13:28:13.864Z,3.58
2022-12-16T13:31:20.241Z,7.97
2022-12-16T13:34:12.240Z,5.57
2022-12-16T13:37:19.181Z,2.88
2022-12-16T13:40:21.046Z,5.93
2022-12-16T13:43:12.230Z,3.55
2022-12-16T13:46:00.027Z,4.40
2022-12-16T13:48:52.260Z,5.47
2022-12-16T13:52:18.542Z,6.05
2022-12-16T13:55:10.320Z,5.65
2022-12-16T13:58:00.730Z,2.28
2022-12-16T14:00:47.941Z,7.05
2022-12-16T14:03:38.596Z,4.40
2022-12-16T14:06:37.644Z,5.53
2022-12-16T14:09:37.899Z,4.50
2022-12-16T14:12:32.006Z,4.70
2022-12-16T14:15:23.711Z,4.70
2022-12-16T14:18:19.357Z,5.07
2022-12-16T14:21:09.533Z,6.63
2022-12-16T14:24:00.783Z,6.97
2022-12-16T14:29:40.235Z,6.15
2022-12-16T14:32:47.059Z,5.50
2022-12-16T14:35:34.824Z,3.85
2022-12-16T14:38:39.232Z,8.65
2022-12-16T14:41:28.882Z,6.28
2022-12-16T14:44:15.676Z,4.22
2022-12-16T14:47:01.440Z,9.02
2022-12-16T14:49:48.169Z,7.28
2022-12-16T14:52:39.467Z,5.93
2022-12-16T14:55:36.004Z,4.18
2022-12-16T14:58:27.787Z,6.40
2022-12-16T15:01:15.926Z,11.48
2022-12-16T15:04:04.176Z,11.20
2022-12-16T15:06:53.714Z,4.20
2022-12-16T15:09:51.064Z,8.80
2022-12-16T15:12:41.314Z,2.10
2022-12-16T15:15:32.236Z,5.38
2022-12-16T15:18:21.755Z,5.00
2022-12-16T15:21:10.962Z,4.93
2022-12-16T15:24:00.264Z,5.80
2022-12-16T15:26:47.900Z,11.07
2022-12-16T15:29:46.805Z,9.85
2022-12-16T15:32:48.096Z,2.88
2022-12-16T15:35:47.071Z,5.68
2022-12-16T15:38:40.697Z,11.25
2022-12-16T15:41:40.738Z,9.90
2022-12-16T15:44:34.270Z,9.18
2022-12-16T15:47:19.954Z,6.38
2022-12-16T15:50:07.685Z,9.73
2022-12-16T15:52:57.198Z,6.28
2022-12-16T15:55:49.443Z,12.50
2022-12-16T15:58:41.392Z,11.00
2022-12-16T16:01:29.130Z,15.48
2022-12-16T16:04:16.258Z,10.48
2022-12-16T16:07:06.237Z,18.20
2022-12-16T16:09:54.776Z,10.57
2022-12-16T16:12:56.525Z,8.70
2022-12-16T16:15:42.224Z,8.90
2022-12-16T16:18:29.024Z,6.50
2022-12-16T16:21:14.507Z,11.70
2022-12-16T16:24:00.483Z,12.73
2022-12-16T16:26:47.179Z,11.82
2022-12-16T16:29:32.484Z,9.48
2022-12-16T16:32:18.209Z,11.25
2022-12-16T16:35:03.741Z,13.77
2022-12-16T16:37:49.617Z,6.43
2022-12-16T16:40:40.932Z,7.15
2022-12-16T16:43:27.759Z,9.07
2022-12-16T16:46:14.649Z,12.13
2022-12-16T16:49:00.949Z,7.47
2022-12-16T16:51:47.413Z,7.55
2022-12-16T16:54:33.417Z,5.55
2022-12-16T16:57:20.278Z,4.35
2022-12-16T17:00:07.127Z,7.35
2022-12-16T17:02:52.862Z,8.05
2022-12-16T17:05:47.060Z,10.23
2022-12-16T17:08:32.634Z,9.68
2022-12-16T17:11:18.327Z,6.57
2022-12-16T17:14:04.131Z,8.07
2022-12-16T17:16:51.095Z,5.78
2022-12-16T17:19:36.395Z,6.93
2022-12-16T17:22:22.244Z,6.13
2022-12-16T17:25:07.607Z,6.15
2022-12-16T17:27:52.869Z,5.10
2022-12-16T17:30:46.625Z,7.93
2022-12-16T17:33:34.686Z,6.05
2022-12-16T17:36:20.758Z,4.18
2022-12-16T17:39:06.418Z,11.63
2022-12-16T17:41:52.537Z,12.20
2022-12-16T17:44:38.472Z,9.38
2022-12-16T17:47:24.028Z,10.15
2022-12-16T17:50:11.156Z,12.40
2022-12-16T17:52:56.664Z,8.20
2022-12-16T17:55:42.489Z,9.00
2022-12-16T17:58:31.064Z,7.55
2022-12-16T18:01:20.182Z,7.10
2022-12-16T18:04:05.904Z,4.85
2022-12-16T18:06:52.828Z,5.72
2022-12-16T18:09:38.305Z,6.25
2022-12-16T18:12:24.040Z,12.35
2022-12-16T18:15:09.590Z,7.63
2022-12-16T18:17:55.277Z,8.90
2022-12-16T18:20:40.706Z,4.57
2022-12-16T18:23:27.498Z,5.15
2022-12-16T18:26:19.272Z,5.68
2022-12-16T18:29:04.963Z,10.07
2022-12-16T18:31:50.889Z,7.90
2022-12-16T18:34:36.807Z,9.50
2022-12-16T18:37:22.687Z,9.73
2022-12-16T18:40:10.007Z,10.23
2022-12-16T18:42:55.281Z,7.22
2022-12-16T18:45:41.362Z,8.55
2022-12-16T18:48:27.474Z,8.35
2022-12-16T18:51:14.605Z,9.35
2022-12-16T18:54:00.451Z,13.02
2022-12-16T18:56:47.703Z,13.77
2022-12-16T18:59:33.835Z,13.05
2022-12-16T19:02:19.694Z,8.85
2022-12-16T19:05:05.223Z,9.95
2022-12-16T19:07:51.031Z,16.95
2022-12-16T19:10:36.824Z,13.27
2022-12-16T19:13:23.550Z,15.30
2022-12-16T19:16:13.222Z,20.27
2022-12-16T19:18:58.979Z,14.48
2022-12-16T19:21:51.374Z,12.32
2022-12-16T19:24:37.854Z,10.77
2022-12-16T19:27:31.728Z,9.45
2022-12-16T19:30:18.740Z,5.47
2022-12-16T19:33:06.581Z,5.55
2022-12-16T19:35:52.322Z,7.57
2022-12-16T19:38:39.237Z,10.73
2022-12-16T19:41:32.104Z,10.93
2022-12-16T19:44:17.594Z,5.32
2022-12-16T19:47:04.859Z,11.32
2022-12-16T19:49:50.474Z,7.35
2022-12-16T19:52:35.817Z,9.45
2022-12-16T19:55:21.637Z,11.57
2022-12-16T19:58:07.455Z,8.35
2022-12-16T20:00:53.089Z,9.13
2022-12-16T20:03:40.569Z,7.80
2022-12-16T20:06:28.136Z,7.72
2022-12-16T20:09:15.144Z,11.98
2022-12-16T20:12:01.370Z,6.95
2022-12-16T20:14:47.401Z,11.43
2022-12-16T20:17:29.685Z,10.50
2022-12-16T20:20:16.813Z,12.15
2022-12-16T20:23:02.254Z,9.15
2022-12-16T20:25:47.987Z,11.73
2022-12-16T20:28:33.292Z,5.38
2022-12-16T20:31:19.164Z,7.45
2022-12-16T20:34:04.512Z,10.55
2022-12-16T20:36:51.767Z,10.43
2022-12-16T20:39:37.214Z,7.65
2022-12-16T20:42:23.110Z,7.30
2022-12-16T20:45:08.711Z,5.95
2022-12-16T20:47:56.282Z,8.38
2022-12-16T20:50:42.138Z,5.18
2022-12-16T20:53:29.317Z,7.35
2022-12-16T20:56:21.456Z,7.80
2022-12-16T20:59:08.079Z,12.35
2022-12-16T21:02:21.709Z,7.45
2022-12-16T21:05:00.372Z,5.30
2022-12-16T21:07:46.035Z,5.43
2022-12-16T21:10:32.857Z,4.80
2022-12-16T21:13:24.641Z,5.80
2022-12-16T21:16:10.025Z,9.05
2022-12-16T21:18:55.327Z,8.25
2022-12-16T21:21:42.269Z,5.50
2022-12-16T21:24:27.666Z,4.63
2022-12-16T21:27:14.577Z,4.47
2022-12-16T21:30:00.073Z,5.90
2022-12-16T21:32:46.387Z,3.88
2022-12-16T21:35:31.919Z,6.80
2022-12-16T21:38:17.662Z,7.35
2022-12-16T21:41:09.787Z,7.75
2022-12-16T21:43:57.071Z,9.02
2022-12-16T21:46:42.250Z,4.25
2022-12-16T21:49:27.965Z,6.88
2022-12-16T21:52:13.839Z,7.22
2022-12-16T21:54:59.195Z,8.52
2022-12-16T21:57:44.451Z,7.88
2022-12-16T22:00:32.970Z,4.95
2022-12-16T22:03:18.796Z,3.95
2022-12-16T22:06:07.571Z,7.68
2022-12-16T22:08:53.043Z,5.50
2022-12-16T22:11:41.750Z,5.43
2022-12-16T22:14:27.465Z,7.32
2022-12-16T22:17:14.433Z,12.45
2022-12-16T22:20:00.129Z,6.53
2022-12-16T22:22:46.346Z,7.45
2022-12-16T22:25:31.912Z,4.97
2022-12-16T22:28:17.183Z,6.18
2022-12-16T22:31:02.594Z,8.43
2022-12-16T22:33:50.054Z,10.35
2022-12-16T22:36:35.845Z,7.45
2022-12-16T22:39:17.837Z,10.68
2022-12-16T22:42:03.616Z,11.55
2022-12-16T22:44:48.946Z,8.27
2022-12-16T22:47:34.624Z,7.95
2022-12-16T22:50:21.868Z,8.93
2022-12-16T22:53:07.635Z,14.52
2022-12-16T22:55:56.197Z,10.77
2022-12-16T22:58:45.890Z,13.32
2022-12-16T23:01:31.570Z,16.13
2022-12-16T23:04:16.946Z,24.95
2022-12-16T23:07:04.342Z,14.40
2022-12-16T23:09:49.643Z,22.42
2022-12-16T23:12:35.182Z,6.45
2022-12-16T23:15:23.236Z,6.85
2022-12-16T23:18:08.811Z,7.30
2022-12-16T23:20:55.045Z,6.80
2022-12-16T23:23:43.616Z,4.28
2022-12-16T23:26:29.354Z,5.40
2022-12-16T23:29:15.270Z,4.07
2022-12-16T23:32:00.553Z,7.35
2022-12-16T23:34:46.428Z,7.72
2022-12-16T23:37:33.692Z,5.95
2022-12-16T23:40:20.687Z,8.43
2022-12-16T23:43:06.842Z,6.10
2022-12-16T23:45:52.626Z,7.93
2022-12-16T23:48:37.968Z,3.95
2022-12-16T23:51:23.668Z,7.22
2022-12-16T23:54:09.349Z,4.10
2022-12-16T23:56:56.670Z,6.13
2022-12-16T23:59:42.299Z,5.72
